createdAt,value
2018-01-27T00:00:07.242Z,5.90
2018-01-27T00:00:40.756Z,5.90
2018-01-27T00:01:15.198Z,5.80
2018-01-27T00:01:48.869Z,5.80
2018-01-27T00:02:23.183Z,5.90
2018-01-27T00:02:57.015Z,5.80
2018-01-27T00:03:30.694Z,5.90
2018-01-27T00:04:04.551Z,5.90
2018-01-27T00:04:38.239Z,5.90
2018-01-27T00:05:12.681Z,5.90
2018-01-27T00:05:46.333Z,5.90
2018-01-27T00:06:20.759Z,5.90
2018-01-27T00:06:54.431Z,5.80
2018-01-27T00:07:28.874Z,5.90
2018-01-27T00:08:02.571Z,5.90
2018-01-27T00:08:36.410Z,5.90
2018-01-27T00:09:10.654Z,5.90
2018-01-27T00:09:44.139Z,5.80
2018-01-27T00:10:17.793Z,5.90
2018-01-27T00:10:52.217Z,5.90
2018-01-27T00:11:25.875Z,5.80
2018-01-27T00:11:59.530Z,5.90
2018-01-27T00:12:32.892Z,5.90
2018-01-27T00:13:06.563Z,5.90
2018-01-27T00:13:39.572Z,5.90
2018-01-27T00:14:12.734Z,5.80
2018-01-27T00:14:46.219Z,5.90
2018-01-27T00:15:19.731Z,5.90
2018-01-27T00:15:53.388Z,5.80
2018-01-27T00:16:26.537Z,5.90
2018-01-27T00:17:00.982Z,5.80
2018-01-27T00:17:34.695Z,5.80
2018-01-27T00:18:08.358Z,5.80
2018-01-27T00:18:42.067Z,5.90
2018-01-27T00:19:15.727Z,5.80
2018-01-27T00:19:49.228Z,5.90
2018-01-27T00:20:22.709Z,5.90
2018-01-27T00:20:56.194Z,5.90
2018-01-27T00:21:29.862Z,5.90
2018-01-27T00:22:03.532Z,5.90
2018-01-27T00:22:49.369Z,5.90
2018-01-27T00:23:23.059Z,5.80
2018-01-27T00:23:56.724Z,5.90
2018-01-27T00:24:30.405Z,5.90
2018-01-27T00:25:04.065Z,5.90
2018-01-27T00:25:37.722Z,5.90
2018-01-27T00:26:11.402Z,5.90
2018-01-27T00:26:45.075Z,5.90
2018-01-27T00:27:18.736Z,5.90
2018-01-27T00:27:53.194Z,5.90
2018-01-27T00:28:26.854Z,5.90
2018-01-27T00:29:00.530Z,5.90
2018-01-27T00:29:34.186Z,6.00
2018-01-27T00:30:07.862Z,5.90
2018-01-27T00:30:41.528Z,6.00
2018-01-27T00:31:15.189Z,6.00
2018-01-27T00:31:48.858Z,6.00
2018-01-27T00:32:23.300Z,6.00
2018-01-27T00:32:56.989Z,6.00
2018-01-27T00:33:30.654Z,6.00
2018-01-27T00:34:05.153Z,6.00
2018-01-27T00:34:38.814Z,6.00
2018-01-27T00:35:12.478Z,6.00
2018-01-27T00:35:46.157Z,6.00
2018-01-27T00:36:19.822Z,6.00
2018-01-27T00:36:54.257Z,6.00
2018-01-27T00:37:27.926Z,6.00
2018-01-27T00:38:01.639Z,6.00
2018-01-27T00:38:35.322Z,6.00
2018-01-27T00:39:09.000Z,6.00
2018-01-27T00:39:42.662Z,6.00
2018-01-27T00:40:17.094Z,6.00
2018-01-27T00:40:50.754Z,6.00
2018-01-27T00:41:24.426Z,6.00
2018-01-27T00:41:58.091Z,6.00
2018-01-27T00:42:31.763Z,6.00
2018-01-27T00:43:05.443Z,6.00
2018-01-27T00:43:39.130Z,6.00
2018-01-27T00:44:12.792Z,6.00
2018-01-27T00:44:47.054Z,6.00
2018-01-27T00:45:20.767Z,6.00
2018-01-27T00:45:54.580Z,6.00
2018-01-27T00:46:29.014Z,6.00
2018-01-27T00:47:02.682Z,6.00
2018-01-27T00:47:37.117Z,6.00
2018-01-27T00:48:10.821Z,6.00
2018-01-27T00:48:44.491Z,6.00
2018-01-27T00:49:18.177Z,6.00
2018-01-27T00:49:51.853Z,6.00
2018-01-27T00:50:26.311Z,6.00
2018-01-27T00:50:59.977Z,6.00
2018-01-27T00:51:33.646Z,6.00
2018-01-27T00:52:07.319Z,6.00
2018-01-27T00:52:41.755Z,6.00
2018-01-27T00:53:15.457Z,6.00
2018-01-27T00:53:49.128Z,6.00
2018-01-27T00:54:23.032Z,6.00
2018-01-27T00:54:56.716Z,6.00
2018-01-27T00:55:30.400Z,6.00
2018-01-27T00:56:04.075Z,6.00
2018-01-27T00:56:38.520Z,6.00
2018-01-27T00:57:12.204Z,6.00
2018-01-27T00:57:45.883Z,6.00
2018-01-27T00:58:19.587Z,6.00
2018-01-27T00:58:53.311Z,6.00
2018-01-27T00:59:26.815Z,6.00
2018-01-27T01:00:00.494Z,6.00
2018-01-27T01:00:33.837Z,6.00
2018-01-27T01:01:07.506Z,6.00
2018-01-27T01:01:41.934Z,6.10
2018-01-27T01:02:15.618Z,6.00
2018-01-27T01:02:49.290Z,6.10
2018-01-27T01:03:22.978Z,6.10
2018-01-27T01:03:56.652Z,6.10
2018-01-27T01:04:31.099Z,6.10
2018-01-27T01:05:04.445Z,6.00
2018-01-27T01:05:38.881Z,6.10
2018-01-27T01:06:12.600Z,6.00
2018-01-27T01:06:47.192Z,6.00
2018-01-27T01:07:20.857Z,6.00
2018-01-27T01:07:55.308Z,6.10
2018-01-27T01:08:28.691Z,6.00
2018-01-27T01:09:02.366Z,6.10
2018-01-27T01:09:36.029Z,6.10
2018-01-27T01:10:09.698Z,6.00
2018-01-27T01:10:44.128Z,6.10
2018-01-27T01:11:17.793Z,6.00
2018-01-27T01:11:52.230Z,6.00
2018-01-27T01:12:26.662Z,6.10
2018-01-27T01:13:00.020Z,6.00
2018-01-27T01:13:33.730Z,6.10
2018-01-27T01:14:07.414Z,6.10
2018-01-27T01:14:41.090Z,6.10
2018-01-27T01:15:14.758Z,6.10
2018-01-27T01:15:49.202Z,6.10
2018-01-27T01:16:22.685Z,6.10
2018-01-27T01:16:56.368Z,6.10
2018-01-27T01:17:30.059Z,6.10
2018-01-27T01:18:03.737Z,6.10
2018-01-27T01:18:37.500Z,6.10
2018-01-27T01:19:11.935Z,6.10
2018-01-27T01:19:45.396Z,6.10
2018-01-27T01:20:19.830Z,6.10
2018-01-27T01:20:53.505Z,6.10
2018-01-27T01:21:27.930Z,6.10
2018-01-27T01:22:01.602Z,6.10
2018-01-27T01:22:35.273Z,6.10
2018-01-27T01:23:09.770Z,6.10
2018-01-27T01:23:43.473Z,6.10
2018-01-27T01:24:17.922Z,6.10
2018-01-27T01:24:50.940Z,6.10
2018-01-27T01:25:24.602Z,6.10
2018-01-27T01:25:57.642Z,6.10
2018-01-27T01:26:31.207Z,6.10
2018-01-27T01:27:05.642Z,6.10
2018-01-27T01:27:39.320Z,6.10
2018-01-27T01:28:12.993Z,6.10
2018-01-27T01:28:47.485Z,6.10
2018-01-27T01:29:21.148Z,6.00
2018-01-27T01:29:54.828Z,6.10
2018-01-27T01:30:28.513Z,6.10
2018-01-27T01:31:02.190Z,6.10
2018-01-27T01:31:35.871Z,6.10
2018-01-27T01:32:09.542Z,6.10
2018-01-27T01:32:43.977Z,6.10
2018-01-27T01:33:17.656Z,6.00
2018-01-27T01:33:51.345Z,6.10
2018-01-27T01:34:25.139Z,6.00
2018-01-27T01:34:58.810Z,6.10
2018-01-27T01:35:33.266Z,6.00
2018-01-27T01:36:06.959Z,6.00
2018-01-27T01:36:40.634Z,6.10
2018-01-27T01:37:14.309Z,6.10
2018-01-27T01:37:47.989Z,6.10
2018-01-27T01:38:21.664Z,6.10
2018-01-27T01:38:56.118Z,6.00
2018-01-27T01:39:29.802Z,6.00
2018-01-27T01:40:03.488Z,6.10
2018-01-27T01:40:37.166Z,6.10
2018-01-27T01:41:10.841Z,6.00
2018-01-27T01:41:45.344Z,6.10
2018-01-27T01:42:25.214Z,6.10
2018-01-27T01:43:04.470Z,6.10
2018-01-27T01:43:43.690Z,6.00
2018-01-27T01:44:22.955Z,6.00
2018-01-27T01:44:56.640Z,6.00
2018-01-27T01:45:30.321Z,6.10
2018-01-27T01:46:04.004Z,6.10
2018-01-27T01:46:38.448Z,6.10
2018-01-27T01:47:12.132Z,6.00
2018-01-27T01:47:45.813Z,6.00
2018-01-27T01:48:19.485Z,6.00
2018-01-27T01:48:53.275Z,6.00
2018-01-27T01:49:27.415Z,6.00
2018-01-27T01:50:01.123Z,6.00
2018-01-27T01:50:34.812Z,6.00
2018-01-27T01:51:08.502Z,6.00
2018-01-27T01:51:42.172Z,6.00
2018-01-27T01:52:15.850Z,6.00
2018-01-27T01:52:49.538Z,6.00
2018-01-27T01:53:23.222Z,6.00
2018-01-27T01:53:57.664Z,6.00
2018-01-27T01:54:31.357Z,6.00
2018-01-27T01:55:05.034Z,6.00
2018-01-27T01:55:38.371Z,6.00
2018-01-27T01:56:12.818Z,6.00
2018-01-27T01:56:46.155Z,6.00
2018-01-27T01:57:19.825Z,6.00
2018-01-27T01:57:53.502Z,6.00
2018-01-27T01:58:27.167Z,6.00
2018-01-27T01:59:00.830Z,6.00
2018-01-27T01:59:35.303Z,6.00
2018-01-27T02:00:08.326Z,6.00
2018-01-27T02:00:41.648Z,6.00
2018-01-27T02:01:15.001Z,6.00
2018-01-27T02:01:48.687Z,6.00
2018-01-27T02:02:22.352Z,6.00
2018-01-27T02:02:56.787Z,6.00
2018-01-27T02:03:30.448Z,6.00
2018-01-27T02:04:04.887Z,6.00
2018-01-27T02:04:38.590Z,6.00
2018-01-27T02:05:12.267Z,6.00
2018-01-27T02:05:45.948Z,6.00
2018-01-27T02:06:19.623Z,6.00
2018-01-27T02:06:53.304Z,6.00
2018-01-27T02:07:27.739Z,6.00
2018-01-27T02:08:01.412Z,6.00
2018-01-27T02:08:35.083Z,6.00
2018-01-27T02:09:09.517Z,6.00
2018-01-27T02:09:43.206Z,6.00
2018-01-27T02:10:16.874Z,6.00
2018-01-27T02:10:51.325Z,6.00
2018-01-27T02:11:24.989Z,6.00
2018-01-27T02:11:58.669Z,6.00
2018-01-27T02:12:33.105Z,6.00
2018-01-27T02:13:06.782Z,6.00
2018-01-27T02:13:40.462Z,6.00
2018-01-27T02:14:14.132Z,6.00
2018-01-27T02:14:48.594Z,6.00
2018-01-27T02:15:22.269Z,6.00
2018-01-27T02:15:55.945Z,6.00
2018-01-27T02:16:29.618Z,6.00
2018-01-27T02:17:04.046Z,6.00
2018-01-27T02:17:37.386Z,6.00
2018-01-27T02:18:11.054Z,6.00
2018-01-27T02:18:44.716Z,6.10
2018-01-27T02:19:18.046Z,6.10
2018-01-27T02:19:51.751Z,6.00
2018-01-27T02:20:26.182Z,6.10
2018-01-27T02:20:59.556Z,6.00
2018-01-27T02:21:33.223Z,6.10
2018-01-27T02:22:07.318Z,6.10
2018-01-27T02:22:40.317Z,6.10
2018-01-27T02:23:13.979Z,6.10
2018-01-27T02:23:47.668Z,6.10
2018-01-27T02:24:21.320Z,6.10
2018-01-27T02:24:55.060Z,6.10
2018-01-27T02:25:29.516Z,6.10
2018-01-27T02:26:03.200Z,6.10
2018-01-27T02:26:36.861Z,6.10
2018-01-27T02:27:10.545Z,6.10
2018-01-27T02:27:44.986Z,6.10
2018-01-27T02:28:18.650Z,6.10
2018-01-27T02:28:52.318Z,6.10
2018-01-27T02:29:26.746Z,6.10
2018-01-27T02:30:00.434Z,6.10
2018-01-27T02:30:34.111Z,6.10
2018-01-27T02:31:08.541Z,6.10
2018-01-27T02:31:42.218Z,6.10
2018-01-27T02:32:15.893Z,6.10
2018-01-27T02:32:50.332Z,6.10
2018-01-27T02:33:23.999Z,6.10
2018-01-27T02:33:58.096Z,6.10
2018-01-27T02:34:32.551Z,6.10
2018-01-27T02:35:06.278Z,6.10
2018-01-27T02:35:39.959Z,6.10
2018-01-27T02:36:13.639Z,6.10
2018-01-27T02:36:46.979Z,6.10
2018-01-27T02:37:20.680Z,6.10
2018-01-27T02:37:54.350Z,6.10
2018-01-27T02:38:28.033Z,6.10
2018-01-27T02:39:02.474Z,6.10
2018-01-27T02:39:36.138Z,6.10
2018-01-27T02:40:09.503Z,6.10
2018-01-27T02:40:43.953Z,6.10
2018-01-27T02:41:17.451Z,6.10
2018-01-27T02:41:50.478Z,6.10
2018-01-27T02:42:24.153Z,6.10
2018-01-27T02:42:58.588Z,6.10
2018-01-27T02:43:32.247Z,6.10
2018-01-27T02:44:06.678Z,6.10
2018-01-27T02:44:40.358Z,6.10
2018-01-27T02:45:14.835Z,6.10
2018-01-27T02:45:48.501Z,6.10
2018-01-27T02:46:21.842Z,6.10
2018-01-27T02:46:55.507Z,6.10
2018-01-27T02:47:29.966Z,6.10
2018-01-27T02:48:03.655Z,6.10
2018-01-27T02:48:37.341Z,6.10
2018-01-27T02:49:10.167Z,6.10
2018-01-27T02:49:44.603Z,6.10
2018-01-27T02:50:18.325Z,6.10
2018-01-27T02:50:51.986Z,6.10
2018-01-27T02:51:25.662Z,6.10
2018-01-27T02:51:59.341Z,6.10
2018-01-27T02:52:33.790Z,6.10
2018-01-27T02:53:07.465Z,6.10
2018-01-27T02:53:41.137Z,6.10
2018-01-27T02:54:15.569Z,6.10
2018-01-27T02:54:49.250Z,6.10
2018-01-27T02:55:22.956Z,6.10
2018-01-27T02:55:56.451Z,6.10
2018-01-27T02:56:29.623Z,6.10
2018-01-27T02:57:03.305Z,6.10
2018-01-27T02:57:36.978Z,6.10
2018-01-27T02:58:10.653Z,6.10
2018-01-27T02:58:44.146Z,6.10
2018-01-27T02:59:18.566Z,6.10
2018-01-27T02:59:52.247Z,6.10
2018-01-27T03:00:26.719Z,6.10
2018-01-27T03:00:59.725Z,6.10
2018-01-27T03:01:33.408Z,6.10
2018-01-27T03:02:07.081Z,6.10
2018-01-27T03:02:40.749Z,6.10
2018-01-27T03:03:14.426Z,6.10
2018-01-27T03:03:48.093Z,6.10
2018-01-27T03:04:21.761Z,6.10
2018-01-27T03:04:56.189Z,6.10
2018-01-27T03:05:29.886Z,6.10
2018-01-27T03:06:03.239Z,6.10
2018-01-27T03:06:36.960Z,6.10
2018-01-27T03:07:10.783Z,6.10
2018-01-27T03:07:44.459Z,6.10
2018-01-27T03:08:18.132Z,6.10
2018-01-27T03:08:51.802Z,6.10
2018-01-27T03:09:25.482Z,6.10
2018-01-27T03:09:59.161Z,6.10
2018-01-27T03:10:33.637Z,6.10
2018-01-27T03:11:07.299Z,6.10
2018-01-27T03:11:40.962Z,6.10
2018-01-27T03:12:14.646Z,6.00
2018-01-27T03:12:48.311Z,6.00
2018-01-27T03:13:22.743Z,6.00
2018-01-27T03:13:56.424Z,6.00
2018-01-27T03:14:30.857Z,6.00
2018-01-27T03:15:04.525Z,6.00
2018-01-27T03:15:38.998Z,6.00
2018-01-27T03:16:12.661Z,6.00
2018-01-27T03:16:46.338Z,6.00
2018-01-27T03:17:19.815Z,6.00
2018-01-27T03:17:53.492Z,6.00
2018-01-27T03:18:27.175Z,6.00
2018-01-27T03:19:00.841Z,6.00
2018-01-27T03:19:35.275Z,5.90
2018-01-27T03:20:08.762Z,5.90
2018-01-27T03:20:42.450Z,5.90
2018-01-27T03:21:16.120Z,5.90
2018-01-27T03:21:49.894Z,5.90
2018-01-27T03:22:23.570Z,5.90
2018-01-27T03:22:57.245Z,5.90
2018-01-27T03:23:30.590Z,5.90
2018-01-27T03:24:03.598Z,5.90
2018-01-27T03:24:37.259Z,5.90
2018-01-27T03:25:10.943Z,5.90
2018-01-27T03:25:45.413Z,5.90
2018-01-27T03:26:19.074Z,5.90
2018-01-27T03:26:52.730Z,5.90
2018-01-27T03:27:27.169Z,5.90
2018-01-27T03:28:00.835Z,5.90
2018-01-27T03:28:34.177Z,5.90
2018-01-27T03:29:07.184Z,5.90
2018-01-27T03:29:40.253Z,5.90
2018-01-27T03:30:13.923Z,5.90
2018-01-27T03:30:47.605Z,5.90
2018-01-27T03:31:21.278Z,5.90
2018-01-27T03:31:54.936Z,5.90
2018-01-27T03:32:28.663Z,5.80
2018-01-27T03:33:02.349Z,5.90
2018-01-27T03:33:36.016Z,5.90
2018-01-27T03:34:09.674Z,5.90
2018-01-27T03:34:44.117Z,5.90
2018-01-27T03:35:17.777Z,5.80
2018-01-27T03:35:51.473Z,5.90
2018-01-27T03:36:25.139Z,5.80
2018-01-27T03:36:59.567Z,5.80
2018-01-27T03:37:33.310Z,5.80
2018-01-27T03:38:06.966Z,5.80
2018-01-27T03:38:40.629Z,5.80
2018-01-27T03:39:14.288Z,5.80
2018-01-27T03:39:47.946Z,5.80
2018-01-27T03:40:21.618Z,5.80
2018-01-27T03:40:55.328Z,5.80
2018-01-27T03:41:29.006Z,5.80
2018-01-27T03:42:02.665Z,5.80
2018-01-27T03:42:37.105Z,5.80
2018-01-27T03:43:10.769Z,5.80
2018-01-27T03:43:44.435Z,5.80
2018-01-27T03:44:18.106Z,5.80
2018-01-27T03:44:51.777Z,5.80
2018-01-27T03:45:25.459Z,5.80
2018-01-27T03:45:59.161Z,5.80
2018-01-27T03:46:32.874Z,5.90
2018-01-27T03:47:06.557Z,5.80
2018-01-27T03:47:40.228Z,5.90
2018-01-27T03:48:13.897Z,5.80
2018-01-27T03:48:47.557Z,5.90
2018-01-27T03:49:21.985Z,5.90
2018-01-27T03:49:55.662Z,5.90
2018-01-27T03:50:29.342Z,5.90
2018-01-27T03:51:03.824Z,5.90
2018-01-27T03:51:37.494Z,5.90
2018-01-27T03:52:11.158Z,5.90
2018-01-27T03:52:44.819Z,5.90
2018-01-27T03:53:18.918Z,5.90
2018-01-27T03:53:53.358Z,5.90
2018-01-27T03:54:27.040Z,5.90
2018-01-27T03:55:00.694Z,5.90
2018-01-27T03:55:35.122Z,5.90
2018-01-27T03:56:08.821Z,5.80
2018-01-27T03:56:42.498Z,5.90
2018-01-27T03:57:16.925Z,5.90
2018-01-27T03:57:50.586Z,5.90
2018-01-27T03:58:25.024Z,5.90
2018-01-27T03:58:58.689Z,5.90
2018-01-27T03:59:33.121Z,5.90
2018-01-27T04:00:06.455Z,5.90
2018-01-27T04:00:40.120Z,5.90
2018-01-27T04:01:13.816Z,5.90
2018-01-27T04:01:47.469Z,5.90
2018-01-27T04:02:21.131Z,5.90
2018-01-27T04:02:55.550Z,5.90
2018-01-27T04:03:29.231Z,5.90
2018-01-27T04:04:02.918Z,5.80
2018-01-27T04:04:37.355Z,5.90
2018-01-27T04:05:11.021Z,5.80
2018-01-27T04:05:44.676Z,5.90
2018-01-27T04:06:18.370Z,5.90
2018-01-27T04:06:52.050Z,5.90
2018-01-27T04:07:25.726Z,5.90
2018-01-27T04:07:59.397Z,5.90
2018-01-27T04:08:33.067Z,5.90
2018-01-27T04:09:06.743Z,5.90
2018-01-27T04:09:41.177Z,5.90
2018-01-27T04:10:14.843Z,5.90
2018-01-27T04:10:48.508Z,5.90
2018-01-27T04:11:22.207Z,5.90
2018-01-27T04:11:56.634Z,5.90
2018-01-27T04:12:30.319Z,5.90
2018-01-27T04:13:04.762Z,5.90
2018-01-27T04:13:38.444Z,5.90
2018-01-27T04:14:12.192Z,5.90
2018-01-27T04:14:46.626Z,5.90
2018-01-27T04:15:20.136Z,5.90
2018-01-27T04:15:53.808Z,5.90
2018-01-27T04:16:27.542Z,5.90
2018-01-27T04:17:01.985Z,5.90
2018-01-27T04:17:36.422Z,5.90
2018-01-27T04:18:10.086Z,5.90
2018-01-27T04:18:43.746Z,5.90
2018-01-27T04:19:17.426Z,5.90
2018-01-27T04:19:51.101Z,5.90
2018-01-27T04:20:24.776Z,5.90
2018-01-27T04:20:58.434Z,5.90
2018-01-27T04:21:32.139Z,5.90
2018-01-27T04:22:05.809Z,5.90
2018-01-27T04:22:40.237Z,5.90
2018-01-27T04:23:13.907Z,5.90
2018-01-27T04:23:47.577Z,5.90
2018-01-27T04:24:22.007Z,5.90
2018-01-27T04:24:55.669Z,5.90
2018-01-27T04:25:29.340Z,5.90
2018-01-27T04:26:03.002Z,5.90
2018-01-27T04:26:36.706Z,5.90
2018-01-27T04:27:10.378Z,5.90
2018-01-27T04:27:44.046Z,5.90
2018-01-27T04:28:17.714Z,5.90
2018-01-27T04:28:51.381Z,5.90
2018-01-27T04:29:25.638Z,5.90
2018-01-27T04:29:59.134Z,5.80
2018-01-27T04:30:32.145Z,5.90
2018-01-27T04:31:05.813Z,5.90
2018-01-27T04:31:39.526Z,5.90
2018-01-27T04:32:12.857Z,5.80
2018-01-27T04:32:46.539Z,5.80
2018-01-27T04:33:20.218Z,5.80
2018-01-27T04:33:54.649Z,5.80
2018-01-27T04:34:28.322Z,5.80
2018-01-27T04:35:01.324Z,5.80
2018-01-27T04:35:34.997Z,5.80
2018-01-27T04:36:08.665Z,5.80
2018-01-27T04:36:42.370Z,5.80
2018-01-27T04:37:16.037Z,5.80
2018-01-27T04:37:50.462Z,5.80
2018-01-27T04:38:24.141Z,5.80
2018-01-27T04:38:58.583Z,5.80
2018-01-27T04:39:32.253Z,5.80
2018-01-27T04:40:05.942Z,5.80
2018-01-27T04:40:39.287Z,5.80
2018-01-27T04:41:12.962Z,5.80
2018-01-27T04:41:46.653Z,5.80
2018-01-27T04:42:20.321Z,5.80
2018-01-27T04:42:54.002Z,5.80
2018-01-27T04:43:27.666Z,5.80
2018-01-27T04:44:01.143Z,5.80
2018-01-27T04:44:35.573Z,5.80
2018-01-27T04:45:09.046Z,5.80
2018-01-27T04:45:43.477Z,5.80
2018-01-27T04:46:17.145Z,5.80
2018-01-27T04:46:50.822Z,5.80
2018-01-27T04:47:25.054Z,5.80
2018-01-27T04:47:58.061Z,5.80
2018-01-27T04:48:31.732Z,5.80
2018-01-27T04:49:05.093Z,5.80
2018-01-27T04:49:38.775Z,5.80
2018-01-27T04:50:12.450Z,5.80
2018-01-27T04:50:46.110Z,5.80
2018-01-27T04:51:19.793Z,5.80
2018-01-27T04:51:53.489Z,5.80
2018-01-27T04:52:27.149Z,5.80
2018-01-27T04:53:00.481Z,5.80
2018-01-27T04:53:34.922Z,5.80
2018-01-27T04:54:08.585Z,5.80
2018-01-27T04:54:43.006Z,5.80
2018-01-27T04:55:16.683Z,5.80
2018-01-27T04:55:51.122Z,5.80
2018-01-27T04:56:24.779Z,5.80
2018-01-27T04:56:59.251Z,5.80
2018-01-27T04:57:33.689Z,5.80
2018-01-27T04:58:08.132Z,5.80
2018-01-27T04:58:41.789Z,5.80
2018-01-27T04:59:16.223Z,5.80
2018-01-27T04:59:49.566Z,5.80
2018-01-27T05:00:24.038Z,5.80
2018-01-27T05:00:57.707Z,5.80
2018-01-27T05:01:31.366Z,5.80
2018-01-27T05:02:05.806Z,5.80
2018-01-27T05:02:39.495Z,5.80
2018-01-27T05:03:14.101Z,5.80
2018-01-27T05:03:47.816Z,5.80
2018-01-27T05:04:21.487Z,5.80
2018-01-27T05:04:55.146Z,5.80
2018-01-27T05:05:29.578Z,5.80
2018-01-27T05:06:03.240Z,5.80
2018-01-27T05:06:37.678Z,5.80
2018-01-27T05:07:11.368Z,5.80
2018-01-27T05:07:45.017Z,5.80
2018-01-27T05:08:19.458Z,5.80
2018-01-27T05:08:53.122Z,5.80
2018-01-27T05:09:27.554Z,5.80
2018-01-27T05:10:01.212Z,5.80
2018-01-27T05:10:35.650Z,5.80
2018-01-27T05:11:09.314Z,5.80
2018-01-27T05:11:43.772Z,5.80
2018-01-27T05:12:17.464Z,5.80
2018-01-27T05:12:51.131Z,5.80
2018-01-27T05:13:24.795Z,5.80
2018-01-27T05:13:59.222Z,5.80
2018-01-27T05:14:32.880Z,5.80
2018-01-27T05:15:07.323Z,5.80
2018-01-27T05:15:40.982Z,5.70
2018-01-27T05:16:15.420Z,5.80
2018-01-27T05:16:49.906Z,5.70
2018-01-27T05:17:24.379Z,5.70
2018-01-27T05:17:58.226Z,5.70
2018-01-27T05:18:31.889Z,5.80
2018-01-27T05:19:06.326Z,5.80
2018-01-27T05:19:40.009Z,5.70
2018-01-27T05:20:13.721Z,5.80
2018-01-27T05:20:47.400Z,5.80
2018-01-27T05:21:21.067Z,5.70
2018-01-27T05:21:54.738Z,5.80
2018-01-27T05:22:29.196Z,5.70
2018-01-27T05:23:02.863Z,5.70
2018-01-27T05:23:35.853Z,5.70
2018-01-27T05:24:09.519Z,5.70
2018-01-27T05:24:43.185Z,5.80
2018-01-27T05:25:16.834Z,5.70
2018-01-27T05:25:50.501Z,5.70
2018-01-27T05:26:24.165Z,5.80
2018-01-27T05:26:57.841Z,5.70
2018-01-27T05:27:31.542Z,5.80
2018-01-27T05:28:05.968Z,5.70
2018-01-27T05:28:39.630Z,5.70
2018-01-27T05:29:14.070Z,5.70
2018-01-27T05:29:47.733Z,5.70
2018-01-27T05:30:22.158Z,5.80
2018-01-27T05:30:55.826Z,5.70
2018-01-27T05:31:30.259Z,5.70
2018-01-27T05:32:03.934Z,5.80
2018-01-27T05:32:37.641Z,5.70
2018-01-27T05:33:11.301Z,5.70
2018-01-27T05:33:45.735Z,5.80
2018-01-27T05:34:19.398Z,5.70
2018-01-27T05:34:53.843Z,5.80
2018-01-27T05:35:27.498Z,5.70
2018-01-27T05:36:01.931Z,5.80
2018-01-27T05:36:35.622Z,5.70
2018-01-27T05:37:09.283Z,5.80
2018-01-27T05:37:43.721Z,5.80
2018-01-27T05:38:17.398Z,5.70
2018-01-27T05:38:51.063Z,5.70
2018-01-27T05:39:25.498Z,5.80
2018-01-27T05:39:59.177Z,5.70
2018-01-27T05:40:32.836Z,5.80
2018-01-27T05:41:06.502Z,5.70
2018-01-27T05:41:40.167Z,5.80
2018-01-27T05:42:13.829Z,5.80
2018-01-27T05:42:48.282Z,5.80
2018-01-27T05:43:21.941Z,5.70
2018-01-27T05:43:55.599Z,5.80
2018-01-27T05:44:29.290Z,5.70
2018-01-27T05:45:03.714Z,5.80
2018-01-27T05:45:38.144Z,5.80
2018-01-27T05:46:11.799Z,5.70
2018-01-27T05:46:46.230Z,5.70
2018-01-27T05:47:19.894Z,5.80
2018-01-27T05:47:54.351Z,5.80
2018-01-27T05:48:28.010Z,5.80
2018-01-27T05:49:01.715Z,5.80
2018-01-27T05:49:35.521Z,5.80
2018-01-27T05:50:09.184Z,5.80
2018-01-27T05:50:42.856Z,5.80
2018-01-27T05:51:17.277Z,5.70
2018-01-27T05:51:51.702Z,5.70
2018-01-27T05:52:25.366Z,5.70
2018-01-27T05:52:59.833Z,5.70
2018-01-27T05:53:33.498Z,5.70
2018-01-27T05:54:07.165Z,5.70
2018-01-27T05:54:40.833Z,5.70
2018-01-27T05:55:15.261Z,5.70
2018-01-27T05:55:48.734Z,5.70
2018-01-27T05:56:23.166Z,5.70
2018-01-27T05:56:56.834Z,5.70
2018-01-27T05:57:31.274Z,5.70
2018-01-27T05:58:04.966Z,5.70
2018-01-27T05:58:38.449Z,5.70
2018-01-27T05:59:11.937Z,5.70
2018-01-27T05:59:45.608Z,5.70
2018-01-27T06:00:19.266Z,5.60
2018-01-27T06:00:52.934Z,5.60
2018-01-27T06:01:26.593Z,5.60
2018-01-27T06:02:00.270Z,5.60
2018-01-27T06:02:37.006Z,5.60
2018-01-27T06:03:11.452Z,5.60
2018-01-27T06:03:45.100Z,5.50
2018-01-27T06:04:19.545Z,5.50
2018-01-27T06:04:53.221Z,5.50
2018-01-27T06:05:26.889Z,5.50
2018-01-27T06:06:00.555Z,5.50
2018-01-27T06:06:35.735Z,5.40
2018-01-27T06:07:09.407Z,5.40
2018-01-27T06:07:43.081Z,5.50
2018-01-27T06:08:16.697Z,5.40
2018-01-27T06:08:50.361Z,5.40
2018-01-27T06:09:24.029Z,5.40
2018-01-27T06:09:57.703Z,5.40
2018-01-27T06:10:31.371Z,5.40
2018-01-27T06:11:05.050Z,5.40
2018-01-27T06:11:38.720Z,5.40
2018-01-27T06:12:12.225Z,5.40
2018-01-27T06:12:45.886Z,5.40
2018-01-27T06:13:20.355Z,5.30
2018-01-27T06:13:54.023Z,5.30
2018-01-27T06:14:27.698Z,5.30
2018-01-27T06:15:01.166Z,5.30
2018-01-27T06:15:34.672Z,5.30
2018-01-27T06:16:08.343Z,5.30
2018-01-27T06:16:41.996Z,5.30
2018-01-27T06:17:15.657Z,5.30
2018-01-27T06:17:49.322Z,5.30
2018-01-27T06:18:22.509Z,5.30
2018-01-27T06:18:55.989Z,5.30
2018-01-27T06:19:29.474Z,5.30
2018-01-27T06:20:03.129Z,5.30
2018-01-27T06:20:37.552Z,5.30
2018-01-27T06:21:11.028Z,5.30
2018-01-27T06:21:45.274Z,5.30
2018-01-27T06:22:18.750Z,5.20
2018-01-27T06:22:52.407Z,5.30
2018-01-27T06:23:26.683Z,5.30
2018-01-27T06:24:00.149Z,5.30
2018-01-27T06:24:33.634Z,5.30
2018-01-27T06:25:07.294Z,5.30
2018-01-27T06:25:40.953Z,5.30
2018-01-27T06:26:15.378Z,5.30
2018-01-27T06:26:49.031Z,5.30
2018-01-27T06:27:22.698Z,5.30
2018-01-27T06:27:56.373Z,5.30
2018-01-27T06:28:30.065Z,5.30
2018-01-27T06:29:03.732Z,5.30
2018-01-27T06:29:37.400Z,5.30
2018-01-27T06:30:11.062Z,5.30
2018-01-27T06:30:44.727Z,5.30
2018-01-27T06:31:18.393Z,5.30
2018-01-27T06:31:52.059Z,5.30
2018-01-27T06:32:25.720Z,5.30
2018-01-27T06:32:59.406Z,5.30
2018-01-27T06:33:33.099Z,5.30
2018-01-27T06:34:06.782Z,5.30
2018-01-27T06:34:40.459Z,5.30
2018-01-27T06:35:14.117Z,5.30
2018-01-27T06:35:47.789Z,5.30
2018-01-27T06:36:21.134Z,5.30
2018-01-27T06:36:54.797Z,5.30
2018-01-27T06:37:28.473Z,5.30
2018-01-27T06:38:02.149Z,5.30
2018-01-27T06:38:35.853Z,5.30
2018-01-27T06:39:09.510Z,5.30
2018-01-27T06:39:43.953Z,5.30
2018-01-27T06:40:17.642Z,5.30
2018-01-27T06:40:51.314Z,5.30
2018-01-27T06:41:24.328Z,5.30
2018-01-27T06:41:57.342Z,5.30
2018-01-27T06:42:31.780Z,5.30
2018-01-27T06:43:05.441Z,5.30
2018-01-27T06:43:39.153Z,5.30
2018-01-27T06:44:12.831Z,5.30
2018-01-27T06:44:46.511Z,5.30
2018-01-27T06:45:20.190Z,5.30
2018-01-27T06:45:54.285Z,5.30
2018-01-27T06:46:28.736Z,5.30
2018-01-27T06:47:02.399Z,5.30
2018-01-27T06:47:36.073Z,5.30
2018-01-27T06:48:10.519Z,5.30
2018-01-27T06:48:44.219Z,5.30
2018-01-27T06:49:17.967Z,5.30
2018-01-27T06:49:52.423Z,5.30
2018-01-27T06:50:26.108Z,5.30
2018-01-27T06:50:59.777Z,5.30
2018-01-27T06:51:33.453Z,5.30
2018-01-27T06:52:07.891Z,5.30
2018-01-27T06:52:41.550Z,5.30
2018-01-27T06:53:15.220Z,5.30
2018-01-27T06:53:49.682Z,5.30
2018-01-27T06:54:23.372Z,5.30
2018-01-27T06:54:57.037Z,5.30
2018-01-27T06:55:30.709Z,5.30
2018-01-27T06:56:04.801Z,5.30
2018-01-27T06:56:38.902Z,5.30
2018-01-27T06:57:13.338Z,5.30
2018-01-27T06:57:47.859Z,5.30
2018-01-27T06:58:21.523Z,5.30
2018-01-27T06:58:55.983Z,5.30
2018-01-27T06:59:29.669Z,5.30
2018-01-27T07:00:03.342Z,5.30
2018-01-27T07:00:37.002Z,5.30
2018-01-27T07:01:10.674Z,5.30
2018-01-27T07:01:45.106Z,5.30
2018-01-27T07:02:18.774Z,5.30
2018-01-27T07:02:53.199Z,5.30
2018-01-27T07:03:26.870Z,5.30
2018-01-27T07:04:01.342Z,5.30
2018-01-27T07:04:34.997Z,5.40
2018-01-27T07:05:08.647Z,5.40
2018-01-27T07:05:42.309Z,5.40
2018-01-27T07:06:15.989Z,5.40
2018-01-27T07:06:49.666Z,5.40
2018-01-27T07:07:23.336Z,5.40
2018-01-27T07:07:57.002Z,5.40
2018-01-27T07:08:31.098Z,5.40
2018-01-27T07:09:04.891Z,5.40
2018-01-27T07:09:39.344Z,5.40
2018-01-27T07:10:13.010Z,5.40
2018-01-27T07:10:46.373Z,5.40
2018-01-27T07:11:20.816Z,5.40
2018-01-27T07:11:53.822Z,5.40
2018-01-27T07:12:27.480Z,5.40
2018-01-27T07:13:01.151Z,5.40
2018-01-27T07:13:34.825Z,5.40
2018-01-27T07:14:09.291Z,5.40
2018-01-27T07:14:42.965Z,5.40
2018-01-27T07:15:16.641Z,5.40
2018-01-27T07:15:50.302Z,5.40
2018-01-27T07:16:24.738Z,5.30
2018-01-27T07:16:58.399Z,5.30
2018-01-27T07:17:32.826Z,5.40
2018-01-27T07:18:06.501Z,5.30
2018-01-27T07:18:40.927Z,5.30
2018-01-27T07:19:14.622Z,5.30
2018-01-27T07:19:48.293Z,5.40
2018-01-27T07:20:21.970Z,5.30
2018-01-27T07:20:56.484Z,5.30
2018-01-27T07:21:30.918Z,5.30
2018-01-27T07:22:04.585Z,5.30
2018-01-27T07:22:38.282Z,5.30
2018-01-27T07:23:11.618Z,5.30
2018-01-27T07:23:45.287Z,5.30
2018-01-27T07:24:18.970Z,5.30
2018-01-27T07:24:52.644Z,5.30
2018-01-27T07:25:26.334Z,5.30
2018-01-27T07:26:00.154Z,5.30
2018-01-27T07:26:33.822Z,5.30
2018-01-27T07:27:07.482Z,5.30
2018-01-27T07:27:41.915Z,5.30
2018-01-27T07:28:15.604Z,5.30
2018-01-27T07:28:49.275Z,5.30
2018-01-27T07:29:22.982Z,5.30
2018-01-27T07:29:56.466Z,5.30
2018-01-27T07:30:30.143Z,5.30